sensor_id;sensor_type;location;lat;lon;timestamp;pressure;altitude;pressure_sealevel;temperature
13570;BMP180;6856;51.460;7.158;2023-03-05T00:00:29;100926.00;;;9.50
13570;BMP180;6856;51.460;7.158;2023-03-05T00:03:04;100924.00;;;9.40
13570;BMP180;6856;51.460;7.158;2023-03-05T00:05:38;100921.00;;;9.40
13570;BMP180;6856;51.460;7.158;2023-03-05T00:08:13;100919.00;;;9.40
13570;BMP180;6856;51.460;7.158;2023-03-05T00:10:55;100903.00;;;9.40
13570;BMP180;6856;51.460;7.158;2023-03-05T00:13:30;100888.00;;;9.30
13570;BMP180;6856;51.460;7.158;2023-03-05T00:16:08;100885.00;;;9.30
13570;BMP180;6856;51.460;7.158;2023-03-05T00:18:44;100909.00;;;9.30
13570;BMP180;6856;51.460;7.158;2023-03-05T00:21:22;100907.00;;;9.20
13570;BMP180;6856;51.460;7.158;2023-03-05T00:23:58;100906.00;;;9.20
13570;BMP180;6856;51.460;7.158;2023-03-05T00:26:36;100897.00;;;9.20
13570;BMP180;6856;51.460;7.158;2023-03-05T00:29:14;100878.00;;;9.20
13570;BMP180;6856;51.460;7.158;2023-03-05T00:31:50;100886.00;;;9.10
13570;BMP180;6856;51.460;7.158;2023-03-05T00:34:25;100884.00;;;9.10
13570;BMP180;6856;51.460;7.158;2023-03-05T00:37:00;100884.00;;;9.10
13570;BMP180;6856;51.460;7.158;2023-03-05T00:39:33;100897.00;;;9.00
13570;BMP180;6856;51.460;7.158;2023-03-05T00:42:07;100893.00;;;9.00
13570;BMP180;6856;51.460;7.158;2023-03-05T00:44:41;100885.00;;;9.00
13570;BMP180;6856;51.460;7.158;2023-03-05T00:47:15;100886.00;;;9.00
13570;BMP180;6856;51.460;7.158;2023-03-05T00:49:51;100880.00;;;9.00
13570;BMP180;6856;51.460;7.158;2023-03-05T00:52:24;100883.00;;;9.00
13570;BMP180;6856;51.460;7.158;2023-03-05T00:54:59;100880.00;;;9.00
13570;BMP180;6856;51.460;7.158;2023-03-05T00:57:34;100877.00;;;9.00
13570;BMP180;6856;51.460;7.158;2023-03-05T01:00:13;100875.00;;;8.90
13570;BMP180;6856;51.460;7.158;2023-03-05T01:02:47;100878.00;;;8.90
13570;BMP180;6856;51.460;7.158;2023-03-05T01:05:23;100871.00;;;8.90
13570;BMP180;6856;51.460;7.158;2023-03-05T01:07:57;100865.00;;;8.90
13570;BMP180;6856;51.460;7.158;2023-03-05T01:10:32;100869.00;;;8.80
13570;BMP180;6856;51.460;7.158;2023-03-05T01:13:06;100862.00;;;8.90
13570;BMP180;6856;51.460;7.158;2023-03-05T01:15:41;100857.00;;;8.90
13570;BMP180;6856;51.460;7.158;2023-03-05T01:18:16;100864.00;;;8.90
13570;BMP180;6856;51.460;7.158;2023-03-05T01:20:52;100859.00;;;8.80
13570;BMP180;6856;51.460;7.158;2023-03-05T01:23:26;100865.00;;;8.90
13570;BMP180;6856;51.460;7.158;2023-03-05T01:26:00;100854.00;;;8.90
13570;BMP180;6856;51.460;7.158;2023-03-05T01:28:34;100849.00;;;8.80
13570;BMP180;6856;51.460;7.158;2023-03-05T01:31:10;100849.00;;;8.90
13570;BMP180;6856;51.460;7.158;2023-03-05T01:33:44;100839.00;;;8.90
13570;BMP180;6856;51.460;7.158;2023-03-05T01:36:21;100839.00;;;8.80
13570;BMP180;6856;51.460;7.158;2023-03-05T01:38:56;100843.00;;;8.80
13570;BMP180;6856;51.460;7.158;2023-03-05T01:41:30;100843.00;;;8.80
13570;BMP180;6856;51.460;7.158;2023-03-05T01:44:05;100838.00;;;8.70
13570;BMP180;6856;51.460;7.158;2023-03-05T01:46:39;100844.00;;;8.70
13570;BMP180;6856;51.460;7.158;2023-03-05T01:49:20;100838.00;;;8.70
13570;BMP180;6856;51.460;7.158;2023-03-05T01:52:05;100830.00;;;8.70
13570;BMP180;6856;51.460;7.158;2023-03-05T01:54:44;100823.00;;;8.70
13570;BMP180;6856;51.460;7.158;2023-03-05T01:57:25;100816.00;;;8.60
13570;BMP180;6856;51.460;7.158;2023-03-05T02:00:05;100817.00;;;8.60
13570;BMP180;6856;51.460;7.158;2023-03-05T02:02:40;100817.00;;;8.60
13570;BMP180;6856;51.460;7.158;2023-03-05T02:05:19;100812.00;;;8.60
13570;BMP180;6856;51.460;7.158;2023-03-05T02:08:02;100804.00;;;8.50
13570;BMP180;6856;51.460;7.158;2023-03-05T02:10:39;100795.00;;;8.50
13570;BMP180;6856;51.460;7.158;2023-03-05T02:13:19;100798.00;;;8.50
13570;BMP180;6856;51.460;7.158;2023-03-05T02:15:57;100800.00;;;8.50
13570;BMP180;6856;51.460;7.158;2023-03-05T02:18:31;100796.00;;;8.50
13570;BMP180;6856;51.460;7.158;2023-03-05T02:21:07;100784.00;;;8.50
13570;BMP180;6856;51.460;7.158;2023-03-05T02:23:41;100783.00;;;8.50
13570;BMP180;6856;51.460;7.158;2023-03-05T02:26:18;100788.00;;;8.40
13570;BMP180;6856;51.460;7.158;2023-03-05T02:28:56;100780.00;;;8.40
13570;BMP180;6856;51.460;7.158;2023-03-05T02:31:31;100775.00;;;8.40
13570;BMP180;6856;51.460;7.158;2023-03-05T02:34:05;100773.00;;;8.40
13570;BMP180;6856;51.460;7.158;2023-03-05T02:36:40;100773.00;;;8.40
13570;BMP180;6856;51.460;7.158;2023-03-05T02:39:14;100771.00;;;8.50
13570;BMP180;6856;51.460;7.158;2023-03-05T02:41:48;100768.00;;;8.50
13570;BMP180;6856;51.460;7.158;2023-03-05T02:44:22;100765.00;;;8.50
13570;BMP180;6856;51.460;7.158;2023-03-05T02:46:56;100772.00;;;8.50
13570;BMP180;6856;51.460;7.158;2023-03-05T02:49:30;100767.00;;;8.50
13570;BMP180;6856;51.460;7.158;2023-03-05T02:52:06;100762.00;;;8.50
13570;BMP180;6856;51.460;7.158;2023-03-05T02:54:40;100767.00;;;8.50
13570;BMP180;6856;51.460;7.158;2023-03-05T02:57:14;100765.00;;;8.50
13570;BMP180;6856;51.460;7.158;2023-03-05T02:59:48;100761.00;;;8.50
13570;BMP180;6856;51.460;7.158;2023-03-05T03:02:22;100752.00;;;8.50
13570;BMP180;6856;51.460;7.158;2023-03-05T03:04:56;100741.00;;;8.40
13570;BMP180;6856;51.460;7.158;2023-03-05T03:07:32;100733.00;;;8.40
13570;BMP180;6856;51.460;7.158;2023-03-05T03:10:09;100741.00;;;8.40
13570;BMP180;6856;51.460;7.158;2023-03-05T03:12:44;100735.00;;;8.40
13570;BMP180;6856;51.460;7.158;2023-03-05T03:15:18;100736.00;;;8.40
13570;BMP180;6856;51.460;7.158;2023-03-05T03:17:53;100737.00;;;8.40
13570;BMP180;6856;51.460;7.158;2023-03-05T03:20:27;100725.00;;;8.30
13570;BMP180;6856;51.460;7.158;2023-03-05T03:23:02;100724.00;;;8.30
13570;BMP180;6856;51.460;7.158;2023-03-05T03:25:36;100720.00;;;8.30
13570;BMP180;6856;51.460;7.158;2023-03-05T03:28:10;100723.00;;;8.30
13570;BMP180;6856;51.460;7.158;2023-03-05T03:30:43;100710.00;;;8.30
13570;BMP180;6856;51.460;7.158;2023-03-05T03:33:17;100710.00;;;8.20
13570;BMP180;6856;51.460;7.158;2023-03-05T03:35:51;100706.00;;;8.20
13570;BMP180;6856;51.460;7.158;2023-03-05T03:38:27;100697.00;;;8.20
13570;BMP180;6856;51.460;7.158;2023-03-05T03:41:01;100700.00;;;8.20
13570;BMP180;6856;51.460;7.158;2023-03-05T03:43:35;100697.00;;;8.20
13570;BMP180;6856;51.460;7.158;2023-03-05T03:46:09;100696.00;;;8.20
13570;BMP180;6856;51.460;7.158;2023-03-05T03:48:43;100694.00;;;8.20
13570;BMP180;6856;51.460;7.158;2023-03-05T03:51:17;100681.00;;;8.20
13570;BMP180;6856;51.460;7.158;2023-03-05T03:53:54;100687.00;;;8.20
13570;BMP180;6856;51.460;7.158;2023-03-05T03:56:28;100689.00;;;8.20
13570;BMP180;6856;51.460;7.158;2023-03-05T03:59:02;100680.00;;;8.20
13570;BMP180;6856;51.460;7.158;2023-03-05T04:01:36;100674.00;;;8.20
13570;BMP180;6856;51.460;7.158;2023-03-05T04:04:11;100663.00;;;8.20
13570;BMP180;6856;51.460;7.158;2023-03-05T04:06:45;100663.00;;;8.10
13570;BMP180;6856;51.460;7.158;2023-03-05T04:09:21;100662.00;;;8.10
13570;BMP180;6856;51.460;7.158;2023-03-05T04:11:54;100660.00;;;8.10
13570;BMP180;6856;51.460;7.158;2023-03-05T04:14:28;100661.00;;;8.10
13570;BMP180;6856;51.460;7.158;2023-03-05T04:17:02;100656.00;;;8.10
13570;BMP180;6856;51.460;7.158;2023-03-05T04:19:36;100661.00;;;8.10
13570;BMP180;6856;51.460;7.158;2023-03-05T04:22:11;100664.00;;;8.10
13570;BMP180;6856;51.460;7.158;2023-03-05T04:24:46;100628.00;;;8.10
13570;BMP180;6856;51.460;7.158;2023-03-05T04:27:20;100666.00;;;8.10
13570;BMP180;6856;51.460;7.158;2023-03-05T04:29:54;100652.00;;;8.10
13570;BMP180;6856;51.460;7.158;2023-03-05T04:32:28;100646.00;;;8.10
13570;BMP180;6856;51.460;7.158;2023-03-05T04:35:03;100642.00;;;8.10
13570;BMP180;6856;51.460;7.158;2023-03-05T04:37:37;100643.00;;;8.10
13570;BMP180;6856;51.460;7.158;2023-03-05T04:40:14;100636.00;;;8.00
13570;BMP180;6856;51.460;7.158;2023-03-05T04:42:47;100632.00;;;8.00
13570;BMP180;6856;51.460;7.158;2023-03-05T04:45:21;100629.00;;;8.00
13570;BMP180;6856;51.460;7.158;2023-03-05T04:47:55;100628.00;;;8.00
13570;BMP180;6856;51.460;7.158;2023-03-05T04:50:29;100626.00;;;8.00
13570;BMP180;6856;51.460;7.158;2023-03-05T04:53:04;100622.00;;;8.00
13570;BMP180;6856;51.460;7.158;2023-03-05T04:55:39;100618.00;;;8.00
13570;BMP180;6856;51.460;7.158;2023-03-05T04:58:13;100624.00;;;8.00
13570;BMP180;6856;51.460;7.158;2023-03-05T05:00:47;100624.00;;;8.00
13570;BMP180;6856;51.460;7.158;2023-03-05T05:03:21;100615.00;;;8.00
13570;BMP180;6856;51.460;7.158;2023-03-05T05:05:55;100621.00;;;8.00
13570;BMP180;6856;51.460;7.158;2023-03-05T05:08:30;100596.00;;;8.00
13570;BMP180;6856;51.460;7.158;2023-03-05T05:11:06;100622.00;;;8.00
13570;BMP180;6856;51.460;7.158;2023-03-05T05:13:40;100621.00;;;8.00
13570;BMP180;6856;51.460;7.158;2023-03-05T05:16:14;100630.00;;;8.00
13570;BMP180;6856;51.460;7.158;2023-03-05T05:18:48;100623.00;;;8.00
13570;BMP180;6856;51.460;7.158;2023-03-05T05:21:22;100608.00;;;8.00
13570;BMP180;6856;51.460;7.158;2023-03-05T05:23:55;100606.00;;;8.00
13570;BMP180;6856;51.460;7.158;2023-03-05T05:26:34;100564.00;;;8.00
13570;BMP180;6856;51.460;7.158;2023-03-05T05:29:08;100600.00;;;8.00
13570;BMP180;6856;51.460;7.158;2023-03-05T05:31:42;100606.00;;;8.00
13570;BMP180;6856;51.460;7.158;2023-03-05T05:34:16;100613.00;;;8.00
13570;BMP180;6856;51.460;7.158;2023-03-05T05:36:50;100614.00;;;8.00
13570;BMP180;6856;51.460;7.158;2023-03-05T05:39:24;100611.00;;;8.00
13570;BMP180;6856;51.460;7.158;2023-03-05T05:41:59;100594.00;;;8.00
13570;BMP180;6856;51.460;7.158;2023-03-05T05:44:33;100596.00;;;8.00
13570;BMP180;6856;51.460;7.158;2023-03-05T05:47:08;100614.00;;;8.10
13570;BMP180;6856;51.460;7.158;2023-03-05T05:49:42;100613.00;;;8.10
13570;BMP180;6856;51.460;7.158;2023-03-05T05:52:16;100607.00;;;8.10
13570;BMP180;6856;51.460;7.158;2023-03-05T05:54:50;100599.00;;;8.10
13570;BMP180;6856;51.460;7.158;2023-03-05T05:57:26;100604.00;;;8.10
13570;BMP180;6856;51.460;7.158;2023-03-05T06:00:00;100598.00;;;8.10
13570;BMP180;6856;51.460;7.158;2023-03-05T06:02:36;100594.00;;;8.10
13570;BMP180;6856;51.460;7.158;2023-03-05T06:05:13;100562.00;;;8.10
13570;BMP180;6856;51.460;7.158;2023-03-05T06:07:47;100580.00;;;8.10
13570;BMP180;6856;51.460;7.158;2023-03-05T06:10:20;100591.00;;;8.00
13570;BMP180;6856;51.460;7.158;2023-03-05T06:12:55;100578.00;;;8.00
13570;BMP180;6856;51.460;7.158;2023-03-05T06:15:29;100577.00;;;8.00
13570;BMP180;6856;51.460;7.158;2023-03-05T06:18:03;100592.00;;;8.10
13570;BMP180;6856;51.460;7.158;2023-03-05T06:20:37;100562.00;;;8.00
13570;BMP180;6856;51.460;7.158;2023-03-05T06:23:11;100578.00;;;8.00
13570;BMP180;6856;51.460;7.158;2023-03-05T06:25:45;100596.00;;;8.00
13570;BMP180;6856;51.460;7.158;2023-03-05T06:28:20;100594.00;;;8.10
13570;BMP180;6856;51.460;7.158;2023-03-05T06:31:00;100594.00;;;8.10
13570;BMP180;6856;51.460;7.158;2023-03-05T06:33:35;100591.00;;;8.10
13570;BMP180;6856;51.460;7.158;2023-03-05T06:36:11;100574.00;;;8.10
13570;BMP180;6856;51.460;7.158;2023-03-05T06:38:46;100594.00;;;8.10
13570;BMP180;6856;51.460;7.158;2023-03-05T06:41:24;100587.00;;;8.10
13570;BMP180;6856;51.460;7.158;2023-03-05T06:44:01;100568.00;;;8.10
13570;BMP180;6856;51.460;7.158;2023-03-05T06:46:36;100561.00;;;8.00
13570;BMP180;6856;51.460;7.158;2023-03-05T06:49:11;100586.00;;;8.00
13570;BMP180;6856;51.460;7.158;2023-03-05T06:51:45;100557.00;;;8.00
13570;BMP180;6856;51.460;7.158;2023-03-05T06:54:18;100582.00;;;8.00
13570;BMP180;6856;51.460;7.158;2023-03-05T06:56:52;100575.00;;;8.00
13570;BMP180;6856;51.460;7.158;2023-03-05T06:59:28;100571.00;;;8.00
13570;BMP180;6856;51.460;7.158;2023-03-05T07:02:02;100540.00;;;8.10
13570;BMP180;6856;51.460;7.158;2023-03-05T07:04:36;100574.00;;;8.10
13570;BMP180;6856;51.460;7.158;2023-03-05T07:07:09;100574.00;;;8.10
13570;BMP180;6856;51.460;7.158;2023-03-05T07:09:43;100574.00;;;8.10
13570;BMP180;6856;51.460;7.158;2023-03-05T07:12:19;100568.00;;;8.10
13570;BMP180;6856;51.460;7.158;2023-03-05T07:14:54;100568.00;;;8.10
13570;BMP180;6856;51.460;7.158;2023-03-05T07:17:29;100567.00;;;8.10
13570;BMP180;6856;51.460;7.158;2023-03-05T07:20:05;100562.00;;;8.10
13570;BMP180;6856;51.460;7.158;2023-03-05T07:22:40;100568.00;;;8.10
13570;BMP180;6856;51.460;7.158;2023-03-05T07:25:13;100541.00;;;8.00
13570;BMP180;6856;51.460;7.158;2023-03-05T07:27:52;100566.00;;;8.10
13570;BMP180;6856;51.460;7.158;2023-03-05T07:30:28;100561.00;;;8.10
13570;BMP180;6856;51.460;7.158;2023-03-05T07:33:02;100562.00;;;8.10
13570;BMP180;6856;51.460;7.158;2023-03-05T07:35:39;100538.00;;;8.10
13570;BMP180;6856;51.460;7.158;2023-03-05T07:38:13;100564.00;;;8.10
13570;BMP180;6856;51.460;7.158;2023-03-05T07:40:47;100552.00;;;8.10
13570;BMP180;6856;51.460;7.158;2023-03-05T07:43:21;100547.00;;;8.10
13570;BMP180;6856;51.460;7.158;2023-03-05T07:45:58;100548.00;;;8.10
13570;BMP180;6856;51.460;7.158;2023-03-05T07:48:32;100552.00;;;8.00
13570;BMP180;6856;51.460;7.158;2023-03-05T07:51:09;100538.00;;;8.00
13570;BMP180;6856;51.460;7.158;2023-03-05T07:53:48;100549.00;;;8.00
13570;BMP180;6856;51.460;7.158;2023-03-05T07:56:23;100550.00;;;8.00
13570;BMP180;6856;51.460;7.158;2023-03-05T07:58:58;100537.00;;;8.00
13570;BMP180;6856;51.460;7.158;2023-03-05T08:01:34;100542.00;;;8.00
13570;BMP180;6856;51.460;7.158;2023-03-05T08:04:08;100538.00;;;8.00
13570;BMP180;6856;51.460;7.158;2023-03-05T08:06:43;100539.00;;;8.00
13570;BMP180;6856;51.460;7.158;2023-03-05T08:09:18;100544.00;;;8.00
13570;BMP180;6856;51.460;7.158;2023-03-05T08:11:52;100532.00;;;8.00
13570;BMP180;6856;51.460;7.158;2023-03-05T08:14:26;100538.00;;;8.10
13570;BMP180;6856;51.460;7.158;2023-03-05T08:17:03;100531.00;;;8.10
13570;BMP180;6856;51.460;7.158;2023-03-05T08:19:36;100533.00;;;8.10
13570;BMP180;6856;51.460;7.158;2023-03-05T08:22:10;100535.00;;;8.10
13570;BMP180;6856;51.460;7.158;2023-03-05T08:24:47;100538.00;;;8.10
13570;BMP180;6856;51.460;7.158;2023-03-05T08:27:21;100535.00;;;8.10
13570;BMP180;6856;51.460;7.158;2023-03-05T08:29:55;100538.00;;;8.10
13570;BMP180;6856;51.460;7.158;2023-03-05T08:32:31;100526.00;;;8.10
13570;BMP180;6856;51.460;7.158;2023-03-05T08:35:06;100532.00;;;8.10
13570;BMP180;6856;51.460;7.158;2023-03-05T08:37:40;100522.00;;;8.00
13570;BMP180;6856;51.460;7.158;2023-03-05T08:40:16;100523.00;;;8.00
13570;BMP180;6856;51.460;7.158;2023-03-05T08:42:50;100516.00;;;8.00
13570;BMP180;6856;51.460;7.158;2023-03-05T08:45:24;100518.00;;;8.00
13570;BMP180;6856;51.460;7.158;2023-03-05T08:48:00;100518.00;;;8.10
13570;BMP180;6856;51.460;7.158;2023-03-05T08:50:35;100515.00;;;8.10
13570;BMP180;6856;51.460;7.158;2023-03-05T08:53:10;100516.00;;;8.10
13570;BMP180;6856;51.460;7.158;2023-03-05T08:55:53;100511.00;;;8.10
13570;BMP180;6856;51.460;7.158;2023-03-05T08:58:29;100512.00;;;8.10
13570;BMP180;6856;51.460;7.158;2023-03-05T09:01:03;100486.00;;;8.00
13570;BMP180;6856;51.460;7.158;2023-03-05T09:03:39;100514.00;;;8.00
13570;BMP180;6856;51.460;7.158;2023-03-05T09:06:12;100507.00;;;7.90
13570;BMP180;6856;51.460;7.158;2023-03-05T09:08:46;100511.00;;;7.90
13570;BMP180;6856;51.460;7.158;2023-03-05T09:11:20;100513.00;;;7.80
13570;BMP180;6856;51.460;7.158;2023-03-05T09:13:54;100499.00;;;7.80
13570;BMP180;6856;51.460;7.158;2023-03-05T09:16:30;100505.00;;;7.80
13570;BMP180;6856;51.460;7.158;2023-03-05T09:19:06;100485.00;;;7.80
13570;BMP180;6856;51.460;7.158;2023-03-05T09:21:41;100495.00;;;7.80
13570;BMP180;6856;51.460;7.158;2023-03-05T09:24:15;100498.00;;;7.90
13570;BMP180;6856;51.460;7.158;2023-03-05T09:26:49;100488.00;;;7.90
13570;BMP180;6856;51.460;7.158;2023-03-05T09:29:23;100489.00;;;7.90
13570;BMP180;6856;51.460;7.158;2023-03-05T09:31:58;100487.00;;;7.90
13570;BMP180;6856;51.460;7.158;2023-03-05T09:34:33;100490.00;;;7.90
13570;BMP180;6856;51.460;7.158;2023-03-05T09:37:08;100476.00;;;7.90
13570;BMP180;6856;51.460;7.158;2023-03-05T09:39:41;100477.00;;;8.00
13570;BMP180;6856;51.460;7.158;2023-03-05T09:42:53;100481.00;;;8.00
13570;BMP180;6856;51.460;7.158;2023-03-05T09:45:37;100481.00;;;8.00
13570;BMP180;6856;51.460;7.158;2023-03-05T09:48:18;100476.00;;;8.00
13570;BMP180;6856;51.460;7.158;2023-03-05T09:51:01;100472.00;;;8.00
13570;BMP180;6856;51.460;7.158;2023-03-05T09:53:42;100468.00;;;8.00
13570;BMP180;6856;51.460;7.158;2023-03-05T09:56:23;100479.00;;;8.10
13570;BMP180;6856;51.460;7.158;2023-03-05T09:59:04;100475.00;;;8.10
13570;BMP180;6856;51.460;7.158;2023-03-05T10:01:49;100471.00;;;8.10
13570;BMP180;6856;51.460;7.158;2023-03-05T10:04:40;100459.00;;;8.10
13570;BMP180;6856;51.460;7.158;2023-03-05T10:07:23;100458.00;;;8.20
13570;BMP180;6856;51.460;7.158;2023-03-05T10:10:02;100460.00;;;8.20
13570;BMP180;6856;51.460;7.158;2023-03-05T10:12:40;100458.00;;;8.30
13570;BMP180;6856;51.460;7.158;2023-03-05T10:15:23;100452.00;;;8.30
13570;BMP180;6856;51.460;7.158;2023-03-05T10:18:21;100450.00;;;8.40
13570;BMP180;6856;51.460;7.158;2023-03-05T10:21:03;100453.00;;;8.40
13570;BMP180;6856;51.460;7.158;2023-03-05T10:23:59;100449.00;;;8.50
13570;BMP180;6856;51.460;7.158;2023-03-05T10:26:51;100449.00;;;8.50
13570;BMP180;6856;51.460;7.158;2023-03-05T10:29:54;100429.00;;;8.60
13570;BMP180;6856;51.460;7.158;2023-03-05T10:32:41;100424.00;;;8.60
13570;BMP180;6856;51.460;7.158;2023-03-05T10:35:36;100438.00;;;8.60
13570;BMP180;6856;51.460;7.158;2023-03-05T10:38:47;100430.00;;;8.60
13570;BMP180;6856;51.460;7.158;2023-03-05T10:41:33;100425.00;;;8.70
13570;BMP180;6856;51.460;7.158;2023-03-05T10:44:15;100423.00;;;8.70
13570;BMP180;6856;51.460;7.158;2023-03-05T10:46:51;100411.00;;;8.80
13570;BMP180;6856;51.460;7.158;2023-03-05T10:49:31;100422.00;;;8.80
13570;BMP180;6856;51.460;7.158;2023-03-05T10:52:13;100414.00;;;8.80
13570;BMP180;6856;51.460;7.158;2023-03-05T10:54:51;100412.00;;;8.80
13570;BMP180;6856;51.460;7.158;2023-03-05T10:57:28;100411.00;;;8.80
13570;BMP180;6856;51.460;7.158;2023-03-05T11:00:16;100415.00;;;8.80
13570;BMP180;6856;51.460;7.158;2023-03-05T11:02:58;100393.00;;;8.80
13570;BMP180;6856;51.460;7.158;2023-03-05T11:05:43;100410.00;;;8.80
13570;BMP180;6856;51.460;7.158;2023-03-05T11:08:32;100409.00;;;8.80
13570;BMP180;6856;51.460;7.158;2023-03-05T11:11:17;100409.00;;;8.80
13570;BMP180;6856;51.460;7.158;2023-03-05T11:13:55;100400.00;;;8.80
13570;BMP180;6856;51.460;7.158;2023-03-05T11:16:32;100403.00;;;8.80
13570;BMP180;6856;51.460;7.158;2023-03-05T11:19:19;100404.00;;;8.80
13570;BMP180;6856;51.460;7.158;2023-03-05T11:22:07;100395.00;;;8.80
13570;BMP180;6856;51.460;7.158;2023-03-05T11:25:12;100398.00;;;8.90
13570;BMP180;6856;51.460;7.158;2023-03-05T11:27:54;100394.00;;;8.80
13570;BMP180;6856;51.460;7.158;2023-03-05T11:30:31;100390.00;;;8.80
13570;BMP180;6856;51.460;7.158;2023-03-05T11:33:14;100382.00;;;8.80
13570;BMP180;6856;51.460;7.158;2023-03-05T11:36:09;100383.00;;;8.90
13570;BMP180;6856;51.460;7.158;2023-03-05T11:38:50;100374.00;;;8.80
13570;BMP180;6856;51.460;7.158;2023-03-05T11:41:36;100379.00;;;8.80
13570;BMP180;6856;51.460;7.158;2023-03-05T11:44:18;100392.00;;;8.80
13570;BMP180;6856;51.460;7.158;2023-03-05T11:46:59;100376.00;;;8.80
13570;BMP180;6856;51.460;7.158;2023-03-05T11:49:43;100371.00;;;8.80
13570;BMP180;6856;51.460;7.158;2023-03-05T11:52:23;100372.00;;;8.80
13570;BMP180;6856;51.460;7.158;2023-03-05T11:55:07;100360.00;;;8.80
13570;BMP180;6856;51.460;7.158;2023-03-05T11:57:50;100367.00;;;8.90
13570;BMP180;6856;51.460;7.158;2023-03-05T12:00:31;100360.00;;;8.90
13570;BMP180;6856;51.460;7.158;2023-03-05T12:03:14;100362.00;;;8.90
13570;BMP180;6856;51.460;7.158;2023-03-05T12:05:53;100350.00;;;9.00
13570;BMP180;6856;51.460;7.158;2023-03-05T12:08:32;100349.00;;;9.00
13570;BMP180;6856;51.460;7.158;2023-03-05T12:11:17;100340.00;;;9.10
13570;BMP180;6856;51.460;7.158;2023-03-05T12:13:57;100330.00;;;9.10
13570;BMP180;6856;51.460;7.158;2023-03-05T12:16:39;100330.00;;;9.20
13570;BMP180;6856;51.460;7.158;2023-03-05T12:19:39;100304.00;;;9.20
13570;BMP180;6856;51.460;7.158;2023-03-05T12:22:21;100310.00;;;9.30
13570;BMP180;6856;51.460;7.158;2023-03-05T12:25:23;100283.00;;;9.40
13570;BMP180;6856;51.460;7.158;2023-03-05T12:28:01;100310.00;;;9.40
13570;BMP180;6856;51.460;7.158;2023-03-05T12:30:57;100306.00;;;9.50
13570;BMP180;6856;51.460;7.158;2023-03-05T12:33:36;100307.00;;;9.50
13570;BMP180;6856;51.460;7.158;2023-03-05T12:36:36;100301.00;;;9.60
13570;BMP180;6856;51.460;7.158;2023-03-05T12:39:48;100297.00;;;9.60
13570;BMP180;6856;51.460;7.158;2023-03-05T12:42:50;100263.00;;;9.70
13570;BMP180;6856;51.460;7.158;2023-03-05T12:45:37;100283.00;;;9.70
13570;BMP180;6856;51.460;7.158;2023-03-05T12:48:43;100283.00;;;9.70
13570;BMP180;6856;51.460;7.158;2023-03-05T12:51:33;100273.00;;;9.80
13570;BMP180;6856;51.460;7.158;2023-03-05T12:54:31;100247.00;;;9.80
13570;BMP180;6856;51.460;7.158;2023-03-05T12:57:16;100257.00;;;9.80
13570;BMP180;6856;51.460;7.158;2023-03-05T12:59:58;100251.00;;;9.80
13570;BMP180;6856;51.460;7.158;2023-03-05T13:02:36;100254.00;;;9.80
13570;BMP180;6856;51.460;7.158;2023-03-05T13:05:19;100247.00;;;9.90
13570;BMP180;6856;51.460;7.158;2023-03-05T13:08:11;100240.00;;;10.00
13570;BMP180;6856;51.460;7.158;2023-03-05T13:10:52;100239.00;;;10.00
13570;BMP180;6856;51.460;7.158;2023-03-05T13:13:31;100228.00;;;10.00
13570;BMP180;6856;51.460;7.158;2023-03-05T13:16:16;100222.00;;;10.10
13570;BMP180;6856;51.460;7.158;2023-03-05T13:18:52;100203.00;;;10.20
13570;BMP180;6856;51.460;7.158;2023-03-05T13:21:31;100222.00;;;10.20
13570;BMP180;6856;51.460;7.158;2023-03-05T13:24:16;100205.00;;;10.30
13570;BMP180;6856;51.460;7.158;2023-03-05T13:26:50;100209.00;;;10.40
13570;BMP180;6856;51.460;7.158;2023-03-05T13:29:26;100187.00;;;10.50
13570;BMP180;6856;51.460;7.158;2023-03-05T13:32:21;100206.00;;;10.50
13570;BMP180;6856;51.460;7.158;2023-03-05T13:34:59;100200.00;;;10.50
13570;BMP180;6856;51.460;7.158;2023-03-05T13:37:37;100204.00;;;10.50
13570;BMP180;6856;51.460;7.158;2023-03-05T13:40:21;100200.00;;;10.50
13570;BMP180;6856;51.460;7.158;2023-03-05T13:43:08;100192.00;;;10.60
13570;BMP180;6856;51.460;7.158;2023-03-05T13:45:52;100188.00;;;10.60
13570;BMP180;6856;51.460;7.158;2023-03-05T13:48:26;100183.00;;;10.60
13570;BMP180;6856;51.460;7.158;2023-03-05T13:51:00;100182.00;;;10.70
13570;BMP180;6856;51.460;7.158;2023-03-05T13:53:39;100177.00;;;10.70
13570;BMP180;6856;51.460;7.158;2023-03-05T13:56:15;100180.00;;;10.70
13570;BMP180;6856;51.460;7.158;2023-03-05T13:58:51;100156.00;;;10.70
13570;BMP180;6856;51.460;7.158;2023-03-05T14:01:30;100171.00;;;10.70
13570;BMP180;6856;51.460;7.158;2023-03-05T14:04:14;100167.00;;;10.70
13570;BMP180;6856;51.460;7.158;2023-03-05T14:06:54;100154.00;;;10.70
13570;BMP180;6856;51.460;7.158;2023-03-05T14:09:44;100160.00;;;10.70
13570;BMP180;6856;51.460;7.158;2023-03-05T14:12:26;100154.00;;;10.70
13570;BMP180;6856;51.460;7.158;2023-03-05T14:15:03;100147.00;;;10.70
13570;BMP180;6856;51.460;7.158;2023-03-05T14:17:40;100154.00;;;10.80
13570;BMP180;6856;51.460;7.158;2023-03-05T14:20:24;100132.00;;;10.80
13570;BMP180;6856;51.460;7.158;2023-03-05T14:23:00;100152.00;;;10.80
13570;BMP180;6856;51.460;7.158;2023-03-05T14:25:38;100146.00;;;10.80
13570;BMP180;6856;51.460;7.158;2023-03-05T14:28:26;100140.00;;;10.80
13570;BMP180;6856;51.460;7.158;2023-03-05T14:31:01;100134.00;;;10.80
13570;BMP180;6856;51.460;7.158;2023-03-05T14:33:34;100123.00;;;10.80
13570;BMP180;6856;51.460;7.158;2023-03-05T14:36:10;100122.00;;;10.80
13570;BMP180;6856;51.460;7.158;2023-03-05T14:38:43;100118.00;;;10.80
13570;BMP180;6856;51.460;7.158;2023-03-05T14:41:36;100124.00;;;10.70
13570;BMP180;6856;51.460;7.158;2023-03-05T14:44:15;100121.00;;;10.70
13570;BMP180;6856;51.460;7.158;2023-03-05T14:46:50;100110.00;;;10.70
13570;BMP180;6856;51.460;7.158;2023-03-05T14:49:23;100114.00;;;10.70
13570;BMP180;6856;51.460;7.158;2023-03-05T14:51:58;100100.00;;;10.70
13570;BMP180;6856;51.460;7.158;2023-03-05T14:54:36;100099.00;;;10.70
13570;BMP180;6856;51.460;7.158;2023-03-05T14:57:16;100100.00;;;10.80
13570;BMP180;6856;51.460;7.158;2023-03-05T14:59:51;100091.00;;;10.70
13570;BMP180;6856;51.460;7.158;2023-03-05T15:02:26;100084.00;;;10.70
13570;BMP180;6856;51.460;7.158;2023-03-05T15:05:00;100080.00;;;10.70
13570;BMP180;6856;51.460;7.158;2023-03-05T15:07:35;100070.00;;;10.70
13570;BMP180;6856;51.460;7.158;2023-03-05T15:10:14;100070.00;;;10.70
13570;BMP180;6856;51.460;7.158;2023-03-05T15:12:50;100067.00;;;10.70
13570;BMP180;6856;51.460;7.158;2023-03-05T15:15:25;100073.00;;;10.70
13570;BMP180;6856;51.460;7.158;2023-03-05T15:17:59;100068.00;;;10.70
13570;BMP180;6856;51.460;7.158;2023-03-05T15:20:33;100063.00;;;10.60